Terminal Aerodrome Forecast
Issued by NWS

Home | Current Version | Previous Version | Text Only | Print | Product List | Glossary On
Versions: 1 2 3 4 5 6 7 8 9 10 11 12 13
000
FTUS44 KLZK 021131
TAFHRO
TAF
KHRO 021131Z 0212/0312 14004KT P6SM SCT250
      TEMPO 0212/0214 5SM BR
     FM021500 16008KT P6SM SCT050 SCT250
     FM030100 17004KT P6SM SCT250=

USA.gov is the U.S. government's official web portal to all federal, state and local government web resources and services.